Terminal Aerodrome Forecast
Issued by NWS Charleston, WV

Current Version | Previous Version | Graphics & Text | Print | Product List | Glossary On
Versions: 1 2 3 4 5 6 7 8 9 10 11 12 13 14 15 16 17 18 19 20 21 22
000
FTUS41 KRLX 290800 AAA
TAFPKB
TAF AMD
KPKB 290836Z 2909/3006 25005KT P6SM BKN070
     FM291400 25006KT P6SM BKN080
     FM291700 26010G17KT P6SM SCT060
     FM292300 28008G13KT P6SM BKN040
     FM300100 29005KT P6SM BKN040
     FM300500 00000KT P6SM BKN030=

USA.gov is the U.S. government's official web portal to all federal, state and local government web resources and services.